Terminal Aerodrome Forecast
Issued by NWS

Home | Current Version | Previous Version | Text Only | Print | Product List | Glossary On
Versions: 1 2 3 4 5 6 7 8 9 10 11 12 13
000
FTUS43 KSGF 281720
TAFJLN
TAF
KJLN 281720Z 2818/2918 18010KT P6SM BKN150 BKN250
     FM290000 17008KT P6SM BKN100 OVC200 PROB30 2903/2909 5SM TSRA
      BKN050CB OVC100
     FM291200 19008KT P6SM BKN150=

USA.gov is the U.S. government's official web portal to all federal, state and local government web resources and services.